Time;durP1;ratioP1;P1;durP2;ratioP2;P2;SDS_P1;SDS_P2;PMS_P1;PMS_P2;Temp;Humidity;BMP_temperature;BMP_pressure;BME280_temperature;BME280_humidity;BME280_pressure;Samples;Min_cycle;Max_cycle;Signal;HPM_P1;HPM_P2
2023/04/17 00:00:27;;;;;;;0.00;0.00;;;;;;;7.83;100.00;101208.94;5002553;28;20518;-79
2023/04/17 00:02:52;;;;;;;0.20;0.20;;;;;;;7.79;100.00;101207.81;5000751;28;20234;-78
2023/04/17 00:05:21;;;;;;;0.10;0.10;;;;;;;7.69;100.00;101205.13;4999800;28;20253;-79
2023/04/17 00:07:47;;;;;;;0.63;0.63;;;;;;;7.65;100.00;101201.31;5000733;28;20195;-78
2023/04/17 00:10:14;;;;;;;0.00;0.00;;;;;;;7.71;100.00;101211.13;5000340;28;20184;-79
2023/04/17 00:12:39;;;;;;;1.10;0.93;;;;;;;7.70;100.00;101207.59;4998862;28;20544;-78
2023/04/17 00:15:05;;;;;;;0.10;0.00;;;;;;;7.60;100.00;101210.28;4999184;28;20204;-79
2023/04/17 00:17:31;;;;;;;0.00;0.00;;;;;;;7.71;100.00;101211.13;5003288;28;20438;-80
2023/04/17 00:19:56;;;;;;;0.63;0.63;;;;;;;7.73;100.00;101209.75;5003578;28;20726;-79
2023/04/17 00:22:22;;;;;;;1.70;1.60;;;;;;;7.84;100.00;101207.03;5004732;28;20186;-79
2023/04/17 00:24:47;;;;;;;0.00;0.00;;;;;;;7.89;100.00;101207.81;5005146;28;20174;-78
2023/04/17 00:27:12;;;;;;;0.00;0.00;;;;;;;7.86;100.00;101211.09;5003125;28;20200;-80
2023/04/17 00:29:38;;;;;;;0.00;0.00;;;;;;;7.60;100.00;101213.03;5003023;28;20180;-79
2023/04/17 00:32:04;;;;;;;0.10;0.10;;;;;;;7.57;100.00;101207.31;5004413;28;20187;-80
2023/04/17 00:34:29;;;;;;;0.10;0.10;;;;;;;7.59;100.00;101210.56;5004652;28;20552;-80
2023/04/17 00:36:55;;;;;;;0.63;0.63;;;;;;;7.58;100.00;101207.03;5004159;28;20658;-79
2023/04/17 00:39:20;;;;;;;0.63;0.63;;;;;;;7.36;100.00;101203.75;5003655;28;20185;-79
2023/04/17 00:41:46;;;;;;;0.10;0.10;;;;;;;7.29;100.00;101206.75;5003963;28;20637;-80
2023/04/17 00:44:11;;;;;;;1.17;0.53;;;;;;;7.35;100.00;101204.84;5004479;28;20188;-79
2023/04/17 00:46:37;;;;;;;0.00;0.00;;;;;;;7.32;100.00;101208.13;5004614;28;20275;-79
2023/04/17 00:49:03;;;;;;;0.00;0.00;;;;;;;7.28;100.00;101207.84;5003824;28;20227;-79
2023/04/17 00:51:28;;;;;;;0.00;0.00;;;;;;;7.23;100.00;101202.38;5003212;28;20757;-80
2023/04/17 00:53:54;;;;;;;0.00;0.00;;;;;;;7.24;100.00;101219.53;5002541;28;20215;-80
2023/04/17 00:56:20;;;;;;;0.73;0.40;;;;;;;7.30;100.00;101221.16;5004002;28;20331;-80
2023/04/17 00:58:47;;;;;;;0.00;0.00;;;;;;;7.35;100.00;101219.25;5004263;28;20230;-78
2023/04/17 01:01:12;;;;;;;0.10;0.10;;;;;;;7.32;100.00;101211.66;5004407;28;20201;-79
2023/04/17 01:03:38;;;;;;;0.00;0.00;;;;;;;7.24;100.00;101214.91;5002250;28;20228;-80
2023/04/17 01:06:03;;;;;;;0.00;0.00;;;;;;;7.22;100.00;101218.97;5002725;28;20197;-80
2023/04/17 01:08:40;;;;;;;0.60;0.60;;;;;;;7.10;100.00;101214.63;5003215;28;20232;-78
2023/04/17 01:11:05;;;;;;;0.00;0.00;;;;;;;7.18;100.00;101217.88;5003346;28;20540;-80
2023/04/17 01:13:30;;;;;;;0.00;0.00;;;;;;;7.23;100.00;101215.97;5005203;28;20223;-79
2023/04/17 01:15:56;;;;;;;0.07;0.07;;;;;;;7.15;100.00;101214.63;5007402;28;20288;-79
2023/04/17 01:18:21;;;;;;;0.00;0.00;;;;;;;7.21;100.00;101214.63;5007770;28;20201;-79
2023/04/17 01:20:46;;;;;;;0.73;0.73;;;;;;;7.19;100.00;101219.50;5007133;28;20173;-79
2023/04/17 01:23:12;;;;;;;0.00;0.00;;;;;;;7.16;100.00;101213.53;5006414;28;20232;-79
2023/04/17 01:25:37;;;;;;;0.00;0.00;;;;;;;7.21;100.00;101220.06;5007582;28;20240;-80
2023/04/17 01:28:03;;;;;;;0.53;0.53;;;;;;;7.04;100.00;101218.41;5007186;28;20184;-79
2023/04/17 01:30:28;;;;;;;0.00;0.00;;;;;;;7.30;100.00;101226.59;5007399;28;20184;-79
2023/04/17 01:32:54;;;;;;;0.00;0.00;;;;;;;7.20;100.00;101221.97;5007278;28;20196;-79
2023/04/17 01:35:20;;;;;;;0.20;0.20;;;;;;;7.11;100.00;101229.84;5006134;28;20207;-80
2023/04/17 01:37:45;;;;;;;0.00;0.00;;;;;;;7.08;100.00;101224.09;5007572;28;20243;-78
2023/04/17 01:40:11;;;;;;;0.00;0.00;;;;;;;7.06;100.00;101229.00;5006739;28;20180;-80
2023/04/17 01:42:36;;;;;;;0.00;0.00;;;;;;;7.24;100.00;101227.69;5007227;28;20264;-80
2023/04/17 01:45:02;;;;;;;0.50;0.47;;;;;;;7.44;100.00;101224.97;5007453;28;20179;-80
2023/04/17 01:47:27;;;;;;;0.00;0.00;;;;;;;7.60;100.00;101229.34;5007916;28;20205;-80
2023/04/17 01:49:53;;;;;;;0.00;0.00;;;;;;;7.65;100.00;101225.78;5007732;28;20184;-80
2023/04/17 01:52:18;;;;;;;0.00;0.00;;;;;;;7.48;100.00;101226.06;5007465;28;20405;-78
2023/04/17 01:54:43;;;;;;;0.00;0.00;;;;;;;7.41;100.00;101229.06;5007062;28;20229;-80
2023/04/17 01:57:09;;;;;;;0.00;0.00;;;;;;;7.38;100.00;101236.94;5005344;28;20288;-79
2023/04/17 01:59:34;;;;;;;0.13;0.13;;;;;;;7.27;100.00;101227.97;5005032;28;20177;-80
2023/04/17 02:01:59;;;;;;;0.00;0.00;;;;;;;7.36;100.00;101233.66;5009182;28;20173;-80
2023/04/17 02:04:25;;;;;;;0.30;0.30;;;;;;;7.53;100.00;101233.44;5008599;28;20208;-79
2023/04/17 02:06:50;;;;;;;0.00;0.00;;;;;;;7.58;100.00;101236.13;5008791;28;20196;-79
2023/04/17 02:09:15;;;;;;;0.00;0.00;;;;;;;7.64;100.00;101232.31;5008591;28;20184;-80
2023/04/17 02:11:41;;;;;;;0.00;0.00;;;;;;;7.57;100.00;101237.22;5008303;28;20234;-80
2023/04/17 02:14:06;;;;;;;0.00;0.00;;;;;;;7.36;100.00;101239.09;5005529;28;20173;-79
2023/04/17 02:16:31;;;;;;;4.00;2.27;;;;;;;7.58;100.00;101236.13;5005730;28;20232;-78
2023/04/17 02:18:57;;;;;;;0.00;0.00;;;;;;;7.67;100.00;101238.06;5005653;28;20594;-79
2023/04/17 02:21:22;;;;;;;0.00;0.00;;;;;;;7.70;100.00;101248.38;5004522;28;20185;-79
2023/04/17 02:23:47;;;;;;;0.00;0.00;;;;;;;7.54;100.00;101243.22;5003859;28;20245;-79
2023/04/17 02:26:13;;;;;;;0.00;0.00;;;;;;;7.64;100.00;101251.34;5005369;28;20200;-79
2023/04/17 02:28:38;;;;;;;0.00;0.00;;;;;;;7.73;100.00;101249.72;5002794;28;20181;-79
2023/04/17 02:31:07;;;;;;;0.00;0.00;;;;;;;7.77;100.00;101245.38;5005322;28;20177;-79
2023/04/17 02:33:35;;;;;;;0.00;0.00;;;;;;;7.72;100.00;101246.19;5021268;22;20327;-78
2023/04/17 02:36:00;;;;;;;0.00;0.00;;;;;;;7.72;100.00;101243.47;5011944;28;20724;-77
2023/04/17 02:38:28;;;;;;;0.00;0.00;;;;;;;7.70;100.00;101248.38;5013234;28;20268;-77
2023/04/17 02:40:54;;;;;;;0.97;0.97;;;;;;;7.66;100.00;101243.72;5027966;28;20183;-77
2023/04/17 02:43:19;;;;;;;0.00;0.00;;;;;;;7.46;100.00;101248.09;5028246;28;20184;-77
2023/04/17 02:45:44;;;;;;;0.00;0.00;;;;;;;7.39;100.00;101244.84;5013133;28;20283;-77
2023/04/17 02:48:10;;;;;;;0.20;0.20;;;;;;;7.36;100.00;101252.69;5012174;28;20235;-77
2023/04/17 02:50:35;;;;;;;0.00;0.00;;;;;;;7.29;100.00;101247.53;5028423;28;20211;-77
2023/04/17 02:53:00;;;;;;;0.50;0.50;;;;;;;7.26;100.00;101242.66;5012957;28;20179;-77
2023/04/17 02:55:26;;;;;;;0.00;0.00;;;;;;;7.14;100.00;101244.78;5012826;28;20208;-77
2023/04/17 02:57:51;;;;;;;0.00;0.00;;;;;;;7.03;100.00;101241.22;5012928;28;20200;-77
2023/04/17 03:00:16;;;;;;;0.00;0.00;;;;;;;6.95;100.00;101243.66;5011726;28;20546;-77
2023/04/17 03:02:42;;;;;;;0.07;0.07;;;;;;;6.91;100.00;101243.34;5012864;28;20184;-76
2023/04/17 03:05:08;;;;;;;0.30;0.30;;;;;;;6.92;100.00;101239.56;5012846;28;20322;-76
2023/04/17 03:07:33;;;;;;;4.60;4.30;;;;;;;6.90;100.00;101244.44;5027960;28;20204;-77
2023/04/17 03:09:58;;;;;;;0.00;0.00;;;;;;;6.84;100.00;101246.34;5012866;28;20212;-77
2023/04/17 03:12:24;;;;;;;0.03;0.03;;;;;;;6.82;100.00;101244.97;5012712;28;20172;-76
2023/04/17 03:14:50;;;;;;;2.90;2.80;;;;;;;6.84;100.00;101245.53;5012653;28;20205;-77
2023/04/17 03:17:16;;;;;;;0.00;0.00;;;;;;;6.83;100.00;101243.91;5012664;28;20192;-77
2023/04/17 03:19:41;;;;;;;0.00;0.00;;;;;;;6.78;100.00;101243.84;5012628;28;20184;-77
2023/04/17 03:22:07;;;;;;;0.00;0.00;;;;;;;6.78;100.00;101252.00;5011314;28;20191;-77
2023/04/17 03:24:32;;;;;;;0.00;0.00;;;;;;;6.83;100.00;101246.59;5011178;28;20172;-77
2023/04/17 03:26:58;;;;;;;0.00;0.00;;;;;;;6.82;100.00;101259.38;5011208;28;20611;-77
2023/04/17 03:29:24;;;;;;;0.00;0.00;;;;;;;6.81;100.00;101251.50;4991759;28;20180;-77
2023/04/17 03:31:49;;;;;;;0.20;0.20;;;;;;;6.80;100.00;101264.25;4992807;28;20188;-77
2023/04/17 03:34:16;;;;;;;0.00;0.00;;;;;;;6.82;100.00;101264.00;4992532;28;20200;-77
2023/04/17 03:36:41;;;;;;;3.50;3.40;;;;;;;6.83;100.00;101266.44;4992650;28;20209;-77
2023/04/17 03:39:07;;;;;;;0.00;0.00;;;;;;;6.82;100.00;101259.38;4992846;28;20187;-77
2023/04/17 03:41:32;;;;;;;0.00;0.00;;;;;;;6.88;100.00;101257.47;4992732;28;20212;-77
2023/04/17 03:43:57;;;;;;;0.93;0.93;;;;;;;6.84;100.00;101267.25;4992641;28;20268;-77
2023/04/17 03:46:22;;;;;;;0.00;0.00;;;;;;;6.92;100.00;101274.06;4992681;28;20196;-77
2023/04/17 03:48:48;;;;;;;0.00;0.00;;;;;;;6.84;100.00;101267.25;4992616;28;20519;-78
2023/04/17 03:51:15;;;;;;;0.00;0.00;;;;;;;6.73;100.00;101273.72;4991235;28;20687;-77
2023/04/17 03:53:40;;;;;;;0.00;0.00;;;;;;;6.67;100.00;101266.66;4992558;28;20275;-78
2023/04/17 03:56:05;;;;;;;0.00;0.00;;;;;;;6.60;100.00;101271.47;4991211;28;20224;-78
2023/04/17 03:58:31;;;;;;;0.00;0.00;;;;;;;6.46;100.00;101269.25;4992460;28;20181;-77
2023/04/17 04:00:57;;;;;;;0.00;0.00;;;;;;;6.35;100.00;101272.97;4992480;28;20551;-78
2023/04/17 04:03:25;;;;;;;3.37;3.17;;;;;;;6.26;100.00;101278.09;4992363;28;20187;-77
2023/04/17 04:05:51;;;;;;;0.10;0.10;;;;;;;6.13;100.00;101275.84;4992311;28;20689;-77
2023/04/17 04:08:16;;;;;;;0.00;0.00;;;;;;;6.08;100.00;101275.81;4992498;28;20185;-77
2023/04/17 04:10:44;;;;;;;0.00;0.00;;;;;;;6.12;100.00;101279.63;4992500;28;20223;-77
2023/04/17 04:13:10;;;;;;;0.00;0.00;;;;;;;6.32;100.00;101275.41;4992303;28;20173;-77
2023/04/17 04:15:36;;;;;;;0.00;0.00;;;;;;;6.32;100.00;101281.66;4990868;28;20300;-77
2023/04/17 04:18:01;;;;;;;0.47;0.47;;;;;;;6.22;100.00;101282.41;4992463;28;20264;-77
2023/04/17 04:20:27;;;;;;;0.00;0.00;;;;;;;6.16;100.00;101288.88;4992366;28;20208;-77
2023/04/17 04:22:56;;;;;;;0.00;0.00;;;;;;;6.39;100.00;101287.69;4992303;28;20169;-77
2023/04/17 04:25:25;;;;;;;0.00;0.00;;;;;;;6.10;100.00;101289.13;4992351;28;20181;-78
2023/04/17 04:27:51;;;;;;;0.00;0.00;;;;;;;6.03;100.00;101283.91;4992351;28;20184;-77
2023/04/17 04:30:17;;;;;;;0.00;0.00;;;;;;;6.11;100.00;101288.03;4992259;28;20185;-76
2023/04/17 04:32:44;;;;;;;0.00;0.00;;;;;;;6.26;100.00;101288.13;4990868;28;20188;-77
2023/04/17 04:35:13;;;;;;;0.00;0.00;;;;;;;6.07;100.00;101287.72;4990821;28;20213;-77
2023/04/17 04:37:41;;;;;;;0.00;0.00;;;;;;;6.22;100.00;101290.56;4992323;28;20565;-77
2023/04/17 04:40:09;;;;;;;0.10;0.10;;;;;;;6.42;100.00;101291.75;4992172;28;20260;-77
2023/04/17 04:42:41;;;;;;;0.00;0.00;;;;;;;6.49;100.00;101301.28;4992560;28;20173;-77
2023/04/17 04:45:08;;;;;;;0.00;0.00;;;;;;;6.54;100.00;101298.63;4990964;28;20173;-77
2023/04/17 04:47:34;;;;;;;33.70;12.23;;;;;;;6.62;100.00;101300.00;4992085;28;20201;-77
2023/04/17 04:49:59;;;;;;;0.47;0.47;;;;;;;6.67;100.00;101299.22;4990805;28;20276;-77
2023/04/17 04:52:25;;;;;;;0.00;0.00;;;;;;;6.71;100.00;101308.47;4992052;28;20181;-77
2023/04/17 04:54:51;;;;;;;0.00;0.00;;;;;;;6.73;100.00;101303.59;4992030;28;20184;-77
2023/04/17 04:57:16;;;;;;;0.00;0.00;;;;;;;6.79;100.00;101305.22;4991743;28;20737;-77
2023/04/17 04:59:42;;;;;;;0.00;0.00;;;;;;;6.81;100.00;101313.97;4992099;28;20256;-77
2023/04/17 05:02:07;;;;;;;0.00;0.00;;;;;;;6.79;100.00;101308.75;4992074;28;20185;-78
2023/04/17 05:04:33;;;;;;;0.00;0.00;;;;;;;6.88;100.00;101314.53;4995464;28;20188;-78
2023/04/17 05:06:58;;;;;;;0.00;0.00;;;;;;;6.90;100.00;101317.78;4995503;28;20649;-77
2023/04/17 05:09:23;;;;;;;0.07;0.07;;;;;;;6.92;100.00;101322.94;4994058;28;20819;-77
2023/04/17 05:11:51;;;;;;;0.00;0.00;;;;;;;6.96;100.00;101324.06;4995490;28;20660;-77
2023/04/17 05:14:16;;;;;;;0.00;0.00;;;;;;;6.98;100.00;101330.88;4993965;28;20181;-76
2023/04/17 05:16:42;;;;;;;0.00;0.00;;;;;;;7.00;100.00;101336.84;4995186;28;20212;-77
2023/04/17 05:19:07;;;;;;;0.00;0.00;;;;;;;6.99;100.00;101332.50;4993937;28;20185;-76
2023/04/17 05:21:32;;;;;;;0.00;0.00;;;;;;;7.00;100.00;101336.84;4995346;28;20577;-77
2023/04/17 05:23:58;;;;;;;0.00;0.00;;;;;;;7.03;100.00;101343.66;4994984;28;20181;-76
2023/04/17 05:26:23;;;;;;;0.00;0.00;;;;;;;7.03;100.00;101340.94;4993810;28;20189;-77
2023/04/17 05:28:48;;;;;;;0.00;0.00;;;;;;;7.01;100.00;101343.91;4995373;28;20192;-77
2023/04/17 05:31:14;;;;;;;0.00;0.00;;;;;;;6.98;100.00;101355.31;4993830;28;20180;-77
2023/04/17 05:33:39;;;;;;;0.43;0.43;;;;;;;6.98;100.00;101358.03;4994736;28;20181;-77
2023/04/17 05:36:07;;;;;;;0.00;0.00;;;;;;;6.85;100.00;101353.91;4993597;28;20263;-77
2023/04/17 05:38:32;;;;;;;0.00;0.00;;;;;;;6.95;100.00;101349.59;4995410;28;20220;-78
2023/04/17 05:40:58;;;;;;;0.70;0.70;;;;;;;6.99;100.00;101356.94;4993686;28;20189;-77
2023/04/17 05:43:23;;;;;;;0.50;0.50;;;;;;;7.01;100.00;101362.13;4993430;28;20595;-77
2023/04/17 05:45:48;;;;;;;0.10;0.10;;;;;;;6.98;100.00;101360.75;4994698;28;20189;-77
2023/04/17 05:48:14;;;;;;;0.00;0.00;;;;;;;6.94;100.00;101356.91;4994792;28;20177;-76
2023/04/17 05:50:39;;;;;;;0.00;0.00;;;;;;;6.92;100.00;101355.53;4994755;28;20177;-76
2023/04/17 05:53:05;;;;;;;0.00;0.00;;;;;;;6.96;100.00;101362.91;4994397;28;20173;-76
2023/04/17 05:55:30;;;;;;;0.00;0.00;;;;;;;6.92;100.00;101359.06;4994486;28;20208;-76
2023/04/17 05:57:56;;;;;;;0.30;0.30;;;;;;;6.92;100.00;101356.34;4993354;28;20185;-77
2023/04/17 06:00:21;;;;;;;0.00;0.00;;;;;;;6.93;100.00;101368.84;4994617;28;20196;-76
2023/04/17 06:02:47;;;;;;;0.50;0.50;;;;;;;6.83;100.00;101366.94;4992973;28;20607;-76
2023/04/17 06:05:13;;;;;;;0.00;0.00;;;;;;;6.85;100.00;101372.09;4994328;28;20161;-76
2023/04/17 06:07:39;;;;;;;0.00;0.00;;;;;;;6.93;100.00;101371.56;4993105;28;20619;-76
2023/04/17 06:10:05;;;;;;;0.17;0.17;;;;;;;6.98;100.00;101374.34;4994634;28;20189;-76
2023/04/17 06:12:31;;;;;;;0.00;0.00;;;;;;;6.98;100.00;101387.09;4994074;28;20204;-76
2023/04/17 06:14:56;;;;;;;0.00;0.00;;;;;;;6.80;100.00;101374.78;4994195;28;20283;-77
2023/04/17 06:17:22;;;;;;;0.00;0.00;;;;;;;6.89;100.00;101375.91;4994174;28;20657;-76
2023/04/17 06:19:47;;;;;;;0.00;0.00;;;;;;;6.95;100.00;101380.31;4994181;28;20173;-77
2023/04/17 06:22:12;;;;;;;0.30;0.30;;;;;;;6.80;100.00;101380.22;4994049;28;20197;-77
2023/04/17 06:24:38;;;;;;;0.00;0.00;;;;;;;6.85;100.00;101374.81;4994039;28;20181;-77
2023/04/17 06:27:03;;;;;;;0.00;0.00;;;;;;;6.93;100.00;101384.34;4993935;28;20208;-77
2023/04/17 06:29:29;;;;;;;0.00;0.00;;;;;;;6.98;100.00;101384.38;4999591;28;20187;-77
2023/04/17 06:31:55;;;;;;;0.17;0.17;;;;;;;6.63;100.00;101385.81;5013252;28;20241;-77
2023/04/17 06:34:20;;;;;;;0.40;0.40;;;;;;;6.69;100.00;101389.38;5013298;28;20189;-76
2023/04/17 06:36:46;;;;;;;0.00;0.00;;;;;;;6.82;100.00;101394.34;5013276;28;20212;-77
2023/04/17 06:39:12;;;;;;;0.00;0.00;;;;;;;6.95;100.00;101399.31;5013386;28;20172;-77
2023/04/17 06:41:37;;;;;;;1.40;1.40;;;;;;;6.81;100.00;101398.97;5012011;28;20176;-76
2023/04/17 06:44:02;;;;;;;0.00;0.00;;;;;;;6.88;100.00;101398.72;5013257;28;20168;-77
2023/04/17 06:46:28;;;;;;;0.00;0.00;;;;;;;7.11;100.00;101400.22;5011903;28;20192;-76
2023/04/17 06:48:56;;;;;;;0.60;0.60;;;;;;;6.93;100.00;101406.06;5012773;28;20180;-76
2023/04/17 06:51:24;;;;;;;0.10;0.10;;;;;;;6.92;100.00;101407.16;5013133;28;20667;-76
2023/04/17 06:53:49;;;;;;;0.00;0.00;;;;;;;6.96;100.00;101411.00;5012990;28;20173;-76
2023/04/17 06:56:15;;;;;;;0.00;0.00;;;;;;;7.03;100.00;101409.66;5012653;28;20467;-76
2023/04/17 06:58:43;;;;;;;0.03;0.03;;;;;;;6.96;100.00;101409.09;5012356;28;20318;-76
2023/04/17 07:01:12;;;;;;;0.00;0.00;;;;;;;7.06;100.00;101421.91;5013146;28;20180;-77
2023/04/17 07:03:38;;;;;;;0.00;0.00;;;;;;;6.99;100.00;101413.19;5011460;28;20298;-77
2023/04/17 07:06:04;;;;;;;0.00;0.00;;;;;;;7.05;100.00;101415.66;5012795;28;20219;-76
2023/04/17 07:08:30;;;;;;;4.27;1.57;;;;;;;7.09;100.00;101413.25;5012288;28;20176;-76
2023/04/17 07:10:55;;;;;;;0.10;0.10;;;;;;;7.01;100.00;101408.31;5012399;28;20547;-76
2023/04/17 07:13:20;;;;;;;0.10;0.10;;;;;;;7.20;100.00;101414.91;5012076;28;20653;-77
2023/04/17 07:15:53;;;;;;;1.20;1.03;;;;;;;7.23;100.00;101421.72;5012095;28;20283;-77
2023/04/17 07:18:20;;;;;;;0.00;0.00;;;;;;;7.15;100.00;101423.06;5012348;28;20186;-77
2023/04/17 07:20:46;;;;;;;0.00;0.00;;;;;;;7.44;100.00;101426.97;5012338;28;21520;-76
2023/04/17 07:23:11;;;;;;;0.97;0.97;;;;;;;7.40;100.00;101430.50;5009607;28;20176;-76
2023/04/17 07:25:36;;;;;;;0.00;0.00;;;;;;;7.41;100.00;101438.41;5011663;28;20183;-77
2023/04/17 07:28:02;;;;;;;1.37;1.37;;;;;;;7.56;100.00;101426.75;5012318;28;20172;-75
2023/04/17 07:30:27;;;;;;;1.13;1.03;;;;;;;7.49;100.00;101428.91;5012533;28;20184;-76
2023/04/17 07:32:52;;;;;;;1.90;1.90;;;;;;;7.49;100.00;101428.91;5011806;28;20177;-77
2023/04/17 07:35:18;;;;;;;1.40;1.17;;;;;;;7.73;100.00;101429.25;5012446;28;20262;-77
2023/04/17 07:37:43;;;;;;;0.00;0.00;;;;;;;7.81;100.00;101431.47;5012021;28;20237;-76
2023/04/17 07:40:09;;;;;;;0.57;0.57;;;;;;;7.69;100.00;101437.13;5011084;28;20215;-76
2023/04/17 07:42:35;;;;;;;2.07;1.93;;;;;;;7.70;100.00;101433.34;5012090;28;20203;-76
2023/04/17 07:45:00;;;;;;;0.20;0.10;;;;;;;7.73;100.00;101435.50;5012270;28;20256;-76
2023/04/17 07:47:26;;;;;;;1.60;1.60;;;;;;;7.70;100.00;101429.78;5010911;28;20196;-76
2023/04/17 07:49:51;;;;;;;0.00;0.00;;;;;;;7.82;100.00;101430.38;5010962;28;20642;-76
2023/04/17 07:52:16;;;;;;;0.40;0.40;;;;;;;8.03;100.00;101437.47;5012147;28;20181;-76
2023/04/17 07:54:43;;;;;;;0.00;0.00;;;;;;;8.00;100.00;101435.31;5012144;28;20172;-76
2023/04/17 07:57:08;;;;;;;0.00;0.00;;;;;;;8.09;100.00;101438.28;5010599;28;20549;-76
2023/04/17 07:59:35;;;;;;;0.00;0.00;;;;;;;8.11;100.00;101436.16;5012207;28;20179;-76
2023/04/17 08:02:01;;;;;;;0.00;0.00;;;;;;;8.25;100.00;101439.97;5012111;28;20318;-75
2023/04/17 08:04:26;;;;;;;0.77;0.77;;;;;;;8.31;100.00;101436.16;5011928;28;20688;-76
2023/04/17 08:06:51;;;;;;;0.00;0.00;;;;;;;8.43;100.00;101438.63;5012083;28;20191;-75
2023/04/17 08:09:17;;;;;;;4.27;3.97;;;;;;;8.32;99.59;101434.25;5010814;28;20634;-76
2023/04/17 08:11:44;;;;;;;2.00;1.90;;;;;;;8.39;99.42;101437.56;5012137;28;20256;-76
2023/04/17 08:14:10;;;;;;;1.07;1.07;;;;;;;8.25;97.86;101439.97;5011938;28;20171;-76
2023/04/17 08:16:36;;;;;;;0.00;0.00;;;;;;;8.47;98.42;101447.88;5011938;28;20231;-76
2023/04/17 08:19:01;;;;;;;0.20;0.20;;;;;;;8.68;98.08;101443.25;5012156;28;20595;-76
2023/04/17 08:21:27;;;;;;;0.67;0.67;;;;;;;8.62;95.45;101438.91;5012062;28;20172;-75
2023/04/17 08:23:52;;;;;;;0.00;0.00;;;;;;;8.77;94.99;101435.34;5011867;28;20172;-76
2023/04/17 08:26:19;;;;;;;2.23;2.13;;;;;;;8.58;94.68;101435.91;5011888;28;20679;-76
2023/04/17 08:28:45;;;;;;;0.00;0.00;;;;;;;8.84;95.53;101441.34;5010715;28;20641;-76
2023/04/17 08:31:10;;;;;;;1.53;1.43;;;;;;;9.09;96.09;101437.72;5011915;28;20645;-76
2023/04/17 08:36:08;;;;;;;0.60;0.60;;;;;;;9.08;93.86;101445.06;4995210;28;20634;-78
2023/04/17 08:38:34;;;;;;;5.30;3.07;;;;;;;9.26;93.49;101449.13;4998048;28;20185;-78
2023/04/17 08:41:04;;;;;;;0.00;0.00;;;;;;;9.28;92.54;101443.41;5001519;28;20173;-78
2023/04/17 08:43:45;;;;;;;10.00;4.77;;;;;;;9.40;91.12;101446.59;5006701;23;20240;-83
2023/04/17 08:46:20;;;;;;;0.20;0.20;;;;;;;9.29;89.54;101434.94;4995372;28;20283;-83
2023/04/17 08:48:45;;;;;;;0.53;0.53;;;;;;;9.25;89.29;101445.56;4995070;28;20303;-83
2023/04/17 08:51:12;;;;;;;0.33;0.33;;;;;;;9.38;89.71;101438.69;4994103;28;20268;-83
2023/04/17 08:53:37;;;;;;;0.20;0.20;;;;;;;9.48;89.24;101443.31;4993552;28;20179;-83
2023/04/17 08:56:04;;;;;;;4.07;3.67;;;;;;;9.75;87.98;101440.19;4994285;28;20213;-84
2023/04/17 08:58:34;;;;;;;1.60;1.50;;;;;;;9.65;85.93;101429.31;4994095;28;20216;-83
2023/04/17 09:01:17;;;;;;;0.63;0.63;;;;;;;9.81;86.73;101430.84;4993987;28;20219;-84
2023/04/17 09:03:45;;;;;;;0.00;0.00;;;;;;;9.74;85.53;101428.47;4994612;28;20312;-83
2023/04/17 09:06:12;;;;;;;0.00;0.00;;;;;;;9.93;87.06;101442.25;4990767;28;20570;-83
2023/04/17 09:08:39;;;;;;;3.80;1.60;;;;;;;9.93;85.64;101435.97;4982827;28;20751;-83
2023/04/17 09:11:15;;;;;;;0.53;0.53;;;;;;;9.85;82.50;101421.03;4993738;28;20181;-83
2023/04/17 09:13:41;;;;;;;0.87;0.87;;;;;;;9.94;81.33;101430.22;4994304;28;20544;-83
2023/04/17 09:16:08;;;;;;;2.30;2.10;;;;;;;9.98;81.21;101420.41;4995782;28;20263;-83
2023/04/17 09:18:35;;;;;;;0.00;0.00;;;;;;;10.04;81.47;101419.25;4995040;28;20189;-83
2023/04/17 09:21:03;;;;;;;1.07;1.03;;;;;;;10.10;82.85;101439.13;4985988;28;20182;-83
2023/04/17 09:23:30;;;;;;;0.30;0.30;;;;;;;9.92;80.21;101421.50;4989608;28;20177;-82
2023/04/17 09:26:07;;;;;;;0.47;0.47;;;;;;;10.00;80.34;101414.66;4992698;28;20217;-84
2023/04/17 09:28:38;;;;;;;0.00;0.00;;;;;;;10.15;80.08;101422.75;4993202;28;20173;-83
2023/04/17 09:31:16;;;;;;;3.10;2.30;;;;;;;10.45;80.41;101426.34;4994343;28;20180;-83
2023/04/17 09:34:06;;;;;;;0.23;0.23;;;;;;;10.52;78.98;101424.09;4992983;28;20192;-83
2023/04/17 09:36:33;;;;;;;1.63;1.57;;;;;;;10.55;77.60;101415.31;4986823;28;20213;-83
2023/04/17 09:39:02;;;;;;;1.17;1.13;;;;;;;10.83;76.76;101413.69;4993428;28;20608;-83
2023/04/17 09:41:31;;;;;;;3.07;2.87;;;;;;;10.64;75.08;101410.88;4994525;28;20251;-84
2023/04/17 09:44:04;;;;;;;0.00;0.00;;;;;;;10.60;75.13;101413.38;4993850;28;20213;-83
2023/04/17 09:46:44;;;;;;;1.50;1.40;;;;;;;10.91;76.63;101422.09;4993275;28;20196;-83
2023/04/17 09:49:29;;;;;;;4.70;3.27;;;;;;;10.86;72.70;101404.94;4994087;28;20788;-83
2023/04/17 09:51:57;;;;;;;1.93;1.10;;;;;;;10.80;70.82;101392.41;5007649;28;20249;-82
2023/04/17 09:54:23;;;;;;;4.30;2.77;;;;;;;10.70;70.21;101391.41;5003041;28;20201;-83
2023/04/17 09:56:54;;;;;;;0.97;0.77;;;;;;;10.64;70.35;101402.69;4994539;28;20189;-83
2023/04/17 09:59:22;;;;;;;1.27;1.17;;;;;;;10.56;70.67;101400.56;4994285;28;20177;-84
2023/04/17 10:01:49;;;;;;;0.23;0.23;;;;;;;10.54;70.97;101408.22;4994112;28;20253;-83
2023/04/17 10:04:14;;;;;;;3.70;2.30;;;;;;;10.48;71.39;101415.66;4993801;28;20205;-83
2023/04/17 10:06:40;;;;;;;0.83;0.83;;;;;;;10.45;71.22;101418.97;4989682;28;20177;-83
2023/04/17 10:09:06;;;;;;;0.30;0.30;;;;;;;10.48;72.24;101421.13;4992828;28;20181;-83
2023/04/17 10:11:37;;;;;;;2.53;1.50;;;;;;;10.58;71.67;101417.50;4992433;28;20177;-83
2023/04/17 10:14:09;;;;;;;0.87;0.47;;;;;;;10.55;70.91;101412.59;4993143;28;20169;-83
2023/04/17 10:16:36;;;;;;;0.87;0.87;;;;;;;10.56;68.87;101395.94;4994061;28;20225;-84
2023/04/17 10:19:31;;;;;;;0.53;0.53;;;;;;;10.67;68.64;101393.91;4995281;28;20209;-84
2023/04/17 10:22:18;;;;;;;1.10;1.10;;;;;;;10.71;67.77;101394.97;5017173;28;20249;-83
2023/04/17 10:24:50;;;;;;;0.27;0.27;;;;;;;10.75;67.71;101390.53;5010008;28;20403;-83
2023/04/17 10:27:45;;;;;;;0.00;0.00;;;;;;;10.85;68.16;101397.81;4992667;28;20180;-83
2023/04/17 10:30:12;;;;;;;0.33;0.33;;;;;;;10.93;67.94;101394.44;4989611;28;20243;-83
2023/04/17 10:32:43;;;;;;;3.70;3.43;;;;;;;10.95;68.54;101400.44;4991993;28;20223;-83
2023/04/17 10:35:15;;;;;;;1.53;1.43;;;;;;;10.96;67.49;101397.41;4993701;28;20264;-83
2023/04/17 10:37:46;;;;;;;1.00;1.00;;;;;;;11.14;67.81;101392.28;4992265;28;20657;-84
2023/04/17 10:40:22;;;;;;;0.43;0.43;;;;;;;11.40;68.71;101395.53;4992314;28;20177;-83
2023/04/17 10:43:22;;;;;;;3.20;2.93;;;;;;;11.10;67.06;101394.78;4991749;28;20176;-83
2023/04/17 10:46:02;;;;;;;0.50;0.50;;;;;;;11.20;68.91;101400.16;4993458;28;20217;-83
2023/04/17 10:48:35;;;;;;;1.83;1.20;;;;;;;11.18;66.52;101374.19;4993607;28;20170;-84
2023/04/17 10:51:20;;;;;;;0.00;0.00;;;;;;;11.32;65.53;101381.41;4993790;28;20227;-83
2023/04/17 10:53:47;;;;;;;0.70;0.37;;;;;;;11.48;65.71;101383.94;4993037;28;20184;-84
2023/04/17 10:56:40;;;;;;;2.30;1.53;;;;;;;11.30;65.15;101367.22;4991968;28;20207;-84
2023/04/17 10:59:10;;;;;;;0.93;0.93;;;;;;;11.57;65.78;101376.69;4993125;28;20180;-84
2023/04/17 11:01:35;;;;;;;2.27;1.63;;;;;;;11.47;63.85;101363.97;4990929;28;20204;-83
2023/04/17 11:04:01;;;;;;;0.67;0.67;;;;;;;11.44;62.00;101350.88;4991522;28;20232;-84
2023/04/17 11:06:30;;;;;;;0.93;0.93;;;;;;;11.36;58.94;101321.44;4991846;28;20255;-84
2023/04/17 11:08:56;;;;;;;0.03;0.03;;;;;;;11.57;58.49;101322.78;4993034;28;20179;-82
2023/04/17 11:11:21;;;;;;;1.43;0.53;;;;;;;11.71;58.31;101331.03;4992774;28;20177;-83
2023/04/17 11:13:47;;;;;;;1.00;1.00;;;;;;;11.70;58.71;101326.66;4992501;28;20538;-84
2023/04/17 11:16:14;;;;;;;0.40;0.40;;;;;;;11.68;58.35;101331.63;4991984;28;20197;-83
2023/04/17 11:18:41;;;;;;;0.60;0.57;;;;;;;11.67;57.68;101326.47;4991291;28;20220;-83
2023/04/17 11:21:12;;;;;;;3.23;2.90;;;;;;;11.32;56.41;101313.00;4990624;28;20181;-79
2023/04/17 11:23:38;;;;;;;1.20;1.20;;;;;;;11.33;56.41;101325.56;4991984;28;20184;-82
2023/04/17 11:26:05;;;;;;;0.00;0.00;;;;;;;11.67;58.73;101343.69;4991000;28;20232;-82
2023/04/17 11:28:31;;;;;;;2.43;2.33;;;;;;;11.95;58.21;101339.19;4991243;28;20670;-82